Time;durP1;ratioP1;P1;durP2;ratioP2;P2;SDS_P1;SDS_P2;PMS_P1;PMS_P2;Temp;Humidity;BMP_temperature;BMP_pressure;BME280_temperature;BME280_humidity;BME280_pressure;Samples;Min_cycle;Max_cycle;Signal;HPM_P1;HPM_P2
2021/12/10 00:00:26;;;;;;;22.55;9.02;;;;;;;5.85;65.30;96896.06;4521673;31;20170;-76
2021/12/10 00:02:54;;;;;;;23.67;10.43;;;;;;;6.56;62.14;96885.28;4535632;31;20150;-76
2021/12/10 00:05:39;;;;;;;21.45;9.07;;;;;;;6.46;62.38;96888.34;4536060;31;20138;-76
2021/12/10 00:08:06;;;;;;;24.05;9.68;;;;;;;6.17;64.07;96892.16;4536020;31;20075;-76
2021/12/10 00:10:36;;;;;;;24.45;9.93;;;;;;;5.84;65.47;96885.00;4521346;31;20078;-76
2021/12/10 00:13:05;;;;;;;22.05;9.52;;;;;;;6.83;61.96;96895.19;4535667;31;20124;-75
2021/12/10 00:15:33;;;;;;;23.05;9.07;;;;;;;6.07;64.72;96892.59;4521613;31;20103;-75
2021/12/10 00:18:04;;;;;;;20.12;8.90;;;;;;;6.93;61.63;96901.56;4521102;31;20092;-76
2021/12/10 00:20:32;;;;;;;22.58;9.77;;;;;;;6.77;62.19;96904.00;4521495;31;20091;-76
2021/12/10 00:23:05;;;;;;;21.35;9.05;;;;;;;6.45;63.30;96904.59;4521539;31;20110;-76
2021/12/10 00:25:38;;;;;;;22.48;10.15;;;;;;;7.36;59.60;96914.94;4535555;31;20120;-76
2021/12/10 00:28:18;;;;;;;24.35;10.25;;;;;;;6.35;63.36;96917.81;4535700;31;20091;-76
2021/12/10 00:31:05;;;;;;;25.42;9.88;;;;;;;6.30;63.60;96921.50;4535792;31;20155;-76
2021/12/10 00:33:38;;;;;;;21.02;9.40;;;;;;;6.45;62.31;96930.22;4535947;31;20091;-76
2021/12/10 00:36:07;;;;;;;22.35;9.30;;;;;;;7.39;59.52;96936.13;4521117;31;20119;-76
2021/12/10 00:38:35;;;;;;;23.08;10.18;;;;;;;6.56;62.61;96933.97;4535377;31;20155;-76
2021/12/10 00:41:04;;;;;;;24.55;10.20;;;;;;;7.08;59.65;96939.31;4535686;31;20527;-75
2021/12/10 00:43:31;;;;;;;25.80;9.52;;;;;;;6.79;61.28;96947.50;4535838;31;20095;-76
2021/12/10 00:45:58;;;;;;;24.42;9.75;;;;;;;7.20;59.82;96951.56;4520897;31;20426;-75
2021/12/10 00:48:26;;;;;;;22.92;9.55;;;;;;;7.04;60.34;96948.06;4521173;31;20155;-75
2021/12/10 00:50:55;;;;;;;20.90;9.55;;;;;;;6.09;64.80;96956.53;4535572;31;20066;-75
2021/12/10 00:53:23;;;;;;;23.90;9.75;;;;;;;5.63;66.17;96966.06;4535281;31;20098;-76
2021/12/10 00:55:51;;;;;;;22.92;9.98;;;;;;;5.95;65.67;96954.53;4521369;31;20418;-75
2021/12/10 00:58:19;;;;;;;24.00;10.63;;;;;;;6.12;64.71;96965.81;4521129;31;20426;-76
2021/12/10 01:01:05;;;;;;;27.25;11.93;;;;;;;6.13;64.53;96965.75;4535422;31;20102;-76
2021/12/10 01:03:38;;;;;;;25.08;12.18;;;;;;;6.79;62.33;96968.00;4535754;31;20099;-76
2021/12/10 01:06:09;;;;;;;23.38;9.93;;;;;;;7.16;61.36;96968.00;4535309;31;20083;-76
2021/12/10 01:08:39;;;;;;;24.08;11.05;;;;;;;7.16;60.62;96973.13;4535623;31;20154;-76
2021/12/10 01:11:25;;;;;;;27.60;11.85;;;;;;;6.51;63.08;96961.56;4521141;31;20208;-76
2021/12/10 01:13:56;;;;;;;25.48;10.52;;;;;;;6.50;63.46;96972.72;4520654;31;20182;-76
2021/12/10 01:27:32;;;;;;;29.60;12.55;;;;;;;5.11;70.41;96963.00;4535203;31;20100;-76
2021/12/10 01:30:08;;;;;;;32.28;11.98;;;;;;;5.84;67.74;96964.34;4535532;31;20097;-75
2021/12/10 01:32:41;;;;;;;31.17;12.45;;;;;;;5.32;69.83;96961.34;4535548;31;20167;-76
2021/12/10 01:35:10;;;;;;;30.10;12.57;;;;;;;4.83;71.76;96964.94;4520982;31;20114;-76
2021/12/10 01:37:37;;;;;;;35.30;14.40;;;;;;;5.21;71.19;96963.50;4535445;31;20157;-76
2021/12/10 01:40:05;;;;;;;;;;;;;;;5.17;71.38;96974.72;4535693;31;20142;-76
2021/12/10 01:42:41;;;;;;;33.35;13.20;;;;;;;4.93;72.18;96967.09;4535048;31;20029;-76
2021/12/10 01:45:19;;;;;;;32.50;12.88;;;;;;;5.37;70.70;96967.09;4521979;31;20096;-75
2021/12/10 01:47:49;;;;;;;34.58;13.07;;;;;;;5.10;71.76;96974.09;4519640;31;20166;-75
2021/12/10 01:50:16;;;;;;;33.80;13.10;;;;;;;5.69;69.52;96973.50;4535118;31;20154;-76
2021/12/10 01:52:49;;;;;;;32.72;13.60;;;;;;;5.18;71.80;96986.59;4535289;31;20182;-75
2021/12/10 01:55:20;;;;;;;30.90;12.63;;;;;;;5.08;71.97;96995.50;4535012;31;20486;-75
2021/12/10 01:57:48;;;;;;;32.95;11.70;;;;;;;5.14;72.65;96988.47;4535288;31;20103;-75
2021/12/10 02:00:18;;;;;;;32.70;12.63;;;;;;;5.32;71.79;96988.66;4520966;31;20083;-76
2021/12/10 02:02:46;;;;;;;34.75;13.52;;;;;;;6.03;69.29;96993.47;4534787;31;20070;-76
2021/12/10 02:05:15;;;;;;;30.77;13.00;;;;;;;6.18;67.74;96992.00;4535239;31;20126;-75
2021/12/10 02:07:42;;;;;;;32.20;12.52;;;;;;;6.73;66.07;96994.75;4520700;31;20179;-75
2021/12/10 02:10:12;;;;;;;33.47;13.40;;;;;;;7.10;64.02;96993.94;4534780;31;20091;-76
2021/12/10 02:12:39;;;;;;;33.72;13.32;;;;;;;7.07;64.09;96993.25;4534853;31;20139;-76
2021/12/10 02:15:07;;;;;;;35.45;12.95;;;;;;;6.67;65.84;96988.16;4520716;31;20462;-76
2021/12/10 02:17:37;;;;;;;33.22;13.75;;;;;;;6.89;64.94;96982.91;4520445;31;20115;-76
2021/12/10 02:20:21;;;;;;;32.30;12.10;;;;;;;7.07;64.39;96978.69;4535079;31;20157;-76
2021/12/10 02:22:49;;;;;;;29.37;11.60;;;;;;;7.72;61.67;96972.19;4535148;31;20124;-75
2021/12/10 02:25:22;;;;;;;30.30;12.23;;;;;;;7.71;61.35;96974.84;4534613;31;20144;-76
2021/12/10 02:27:49;;;;;;;31.95;12.18;;;;;;;7.68;60.67;96980.13;4534882;31;20361;-75
2021/12/10 02:30:18;;;;;;;28.35;11.30;;;;;;;7.44;62.29;96971.84;4520366;31;20153;-75
2021/12/10 02:32:45;;;;;;;27.58;11.75;;;;;;;7.34;62.62;96966.34;4534966;31;20079;-75
2021/12/10 02:35:13;;;;;;;27.92;11.77;;;;;;;7.35;62.24;96957.72;4520532;31;20146;-76
2021/12/10 02:37:41;;;;;;;29.73;11.48;;;;;;;6.52;65.32;96957.25;4534488;31;20139;-75
2021/12/10 02:40:10;;;;;;;32.10;12.80;;;;;;;5.99;67.96;96952.69;4535491;31;20150;-76
2021/12/10 02:42:37;;;;;;;32.38;12.50;;;;;;;6.01;68.19;96949.16;4535838;31;20386;-75
2021/12/10 02:45:06;;;;;;;26.98;10.95;;;;;;;5.48;69.52;96936.81;4534572;31;20135;-75
2021/12/10 02:47:34;;;;;;;27.85;10.65;;;;;;;4.69;73.20;96947.56;4534684;31;20092;-75
2021/12/10 02:50:02;;;;;;;30.58;12.23;;;;;;;5.12;71.99;96954.44;4534808;31;20134;-75
2021/12/10 02:52:29;;;;;;;27.73;11.55;;;;;;;5.33;70.97;96968.13;4519883;31;20159;-76
2021/12/10 02:54:58;;;;;;;30.00;10.65;;;;;;;5.20;70.75;96960.06;4520383;31;20154;-75
2021/12/10 02:57:27;;;;;;;26.98;11.63;;;;;;;4.53;73.30;96962.59;4520399;31;20112;-75
2021/12/10 02:59:54;;;;;;;22.45;9.60;;;;;;;4.92;71.93;96962.88;4533886;31;20591;-75
2021/12/10 03:02:24;;;;;;;21.48;8.85;;;;;;;4.49;72.79;96967.87;4534525;31;20150;-75
2021/12/10 03:04:51;;;;;;;22.40;9.15;;;;;;;4.54;73.00;96955.78;4534533;31;20100;-75
2021/12/10 03:07:19;;;;;;;20.35;8.60;;;;;;;4.76;71.14;96959.19;4519807;31;20107;-76
2021/12/10 03:09:49;;;;;;;22.92;10.07;;;;;;;4.99;69.32;96954.94;4520117;31;20106;-76
2021/12/10 03:12:18;;;;;;;23.50;10.10;;;;;;;4.94;69.32;96953.41;4519650;31;20083;-75
2021/12/10 03:14:50;;;;;;;23.00;10.52;;;;;;;5.62;66.44;96951.59;4520098;31;20108;-75
2021/12/10 03:17:21;;;;;;;22.60;10.15;;;;;;;6.00;63.63;96960.31;4534547;31;20095;-76
2021/12/10 03:19:48;;;;;;;22.35;9.70;;;;;;;6.80;61.02;96955.13;4519553;31;20091;-76
2021/12/10 03:22:16;;;;;;;20.15;9.63;;;;;;;6.76;61.16;96942.50;4534294;31;20143;-76
2021/12/10 03:24:43;;;;;;;20.23;8.98;;;;;;;6.71;60.81;96940.16;4534201;31;20459;-76
2021/12/10 03:27:11;;;;;;;23.98;10.77;;;;;;;6.65;60.62;96943.00;4519490;31;20192;-76
2021/12/10 03:29:41;;;;;;;21.30;9.77;;;;;;;6.37;60.11;96948.50;4533987;31;20149;-76
2021/12/10 03:32:13;;;;;;;21.08;9.95;;;;;;;6.26;61.04;96946.38;4534189;31;20202;-76
2021/12/10 03:34:41;;;;;;;20.58;9.25;;;;;;;6.70;59.54;96951.31;4533844;31;20144;-76
2021/12/10 03:37:08;;;;;;;20.75;8.52;;;;;;;7.19;58.16;96941.38;4534138;31;20118;-76
2021/12/10 03:39:36;;;;;;;17.70;8.23;;;;;;;7.69;55.96;96941.53;4519470;31;20590;-75
2021/12/10 03:42:05;;;;;;;18.58;8.25;;;;;;;7.41;56.65;96946.31;4519302;31;20457;-76
2021/12/10 03:44:33;;;;;;;19.23;8.63;;;;;;;7.38;57.20;96942.19;4533963;31;20147;-75
2021/12/10 03:47:03;;;;;;;18.27;7.85;;;;;;;6.87;58.49;96941.12;4533981;31;20132;-75
2021/12/10 03:49:31;;;;;;;20.52;8.30;;;;;;;6.05;61.69;96955.00;4533342;31;20121;-76
2021/12/10 03:51:58;;;;;;;17.58;7.85;;;;;;;5.33;64.81;96947.66;4533934;31;20084;-75
2021/12/10 03:54:26;;;;;;;18.33;8.02;;;;;;;4.47;68.12;96942.41;4519224;31;20442;-75
2021/12/10 03:56:53;;;;;;;19.67;8.80;;;;;;;4.32;69.14;96945.50;4533795;31;20155;-75
2021/12/10 03:59:22;;;;;;;21.48;8.80;;;;;;;3.89;70.99;96946.13;4533570;31;20469;-75
2021/12/10 04:01:52;;;;;;;21.40;8.40;;;;;;;4.26;68.39;96940.62;4533380;31;20079;-76
2021/12/10 04:04:26;;;;;;;21.08;8.02;;;;;;;4.48;66.51;96941.50;4533788;31;20361;-75
2021/12/10 04:06:55;;;;;;;22.37;8.82;;;;;;;4.80;64.47;96939.50;4519237;31;20174;-75
2021/12/10 04:09:24;;;;;;;22.15;8.90;;;;;;;5.39;61.83;96949.97;4518853;31;20150;-76
2021/12/10 04:11:55;;;;;;;20.73;8.35;;;;;;;4.38;65.45;96945.28;4535618;31;20461;-75
2021/12/10 04:14:23;;;;;;;18.70;7.93;;;;;;;3.93;66.55;96953.63;4535766;31;20115;-76
2021/12/10 04:16:56;;;;;;;21.58;8.40;;;;;;;4.46;63.71;96943.25;4521239;31;20113;-76
2021/12/10 04:19:26;;;;;;;20.05;8.50;;;;;;;4.62;63.12;96951.22;4535745;31;20404;-75
2021/12/10 04:21:56;;;;;;;21.77;9.30;;;;;;;4.19;64.65;96957.03;4535887;31;20474;-75
2021/12/10 04:24:26;;;;;;;18.60;7.85;;;;;;;4.30;64.13;96952.37;4535733;31;20109;-75
2021/12/10 04:26:55;;;;;;;18.98;8.10;;;;;;;5.00;60.49;96944.69;4521479;31;20101;-75
2021/12/10 04:29:22;;;;;;;21.52;8.60;;;;;;;5.00;59.69;96948.94;4535305;31;20181;-76
2021/12/10 04:31:51;;;;;;;23.08;7.75;;;;;;;4.87;59.12;96946.84;4535889;31;20074;-75
2021/12/10 04:34:20;;;;;;;20.08;8.75;;;;;;;4.62;60.06;96949.50;4521488;31;20168;-75
2021/12/10 04:36:48;;;;;;;23.58;10.30;;;;;;;3.81;62.01;96958.31;4535545;31;20159;-76
2021/12/10 04:39:16;;;;;;;35.72;10.30;;;;;;;2.96;64.74;96957.59;4521109;31;20504;-75
2021/12/10 04:41:43;;;;;;;67.82;12.13;;;;;;;4.44;60.89;96952.72;4521361;31;20101;-76
2021/12/10 04:44:10;;;;;;;38.05;8.85;;;;;;;3.66;62.72;96967.31;4535450;31;20146;-75
2021/12/10 04:46:37;;;;;;;22.40;8.73;;;;;;;3.97;62.60;96967.13;4535832;31;20110;-75
2021/12/10 04:49:08;;;;;;;25.12;9.38;;;;;;;3.66;63.55;96974.97;4535514;31;20087;-75
2021/12/10 04:51:45;;;;;;;58.63;10.10;;;;;;;4.41;62.01;96974.97;4535417;31;20154;-76
2021/12/10 04:54:12;;;;;;;72.35;10.10;;;;;;;5.58;57.20;96985.06;4535752;31;20152;-75
2021/12/10 04:56:40;;;;;;;63.65;9.82;;;;;;;4.59;59.64;96976.88;4535731;31;20133;-76
2021/12/10 04:59:10;;;;;;;67.87;9.73;;;;;;;3.67;63.80;96987.66;4535115;31;20096;-76
2021/12/10 05:01:37;;;;;;;56.37;9.55;;;;;;;4.20;62.55;96979.12;4535717;31;20079;-75
2021/12/10 05:04:07;;;;;;;89.35;11.07;;;;;;;4.47;61.47;96990.09;4535564;31;20684;-75
2021/12/10 05:06:35;;;;;;;65.97;9.93;;;;;;;4.03;62.48;96987.34;4535162;31;20104;-76
2021/12/10 05:09:04;;;;;;;32.85;9.18;;;;;;;4.72;61.22;96985.78;4521005;31;20114;-75
2021/12/10 05:11:31;;;;;;;34.03;9.07;;;;;;;5.67;56.71;96987.25;4535313;31;20476;-76
2021/12/10 05:13:58;;;;;;;36.30;8.55;;;;;;;3.86;61.04;97003.22;4515738;31;183412;-75
2021/12/10 05:16:26;;;;;;;29.58;9.35;;;;;;;4.89;60.08;96993.66;4519504;31;20151;-75
2021/12/10 05:18:59;;;;;;;29.90;9.82;;;;;;;4.67;59.12;97002.12;4519052;31;20111;-76
2021/12/10 05:21:30;;;;;;;26.70;9.77;;;;;;;4.58;60.01;97000.78;4519462;31;20131;-75
2021/12/10 05:23:58;;;;;;;22.92;9.30;;;;;;;5.27;58.18;97005.87;4518456;31;20505;-75
2021/12/10 05:26:26;;;;;;;21.90;9.45;;;;;;;4.94;61.34;97004.53;4519188;31;20104;-76
2021/12/10 05:28:53;;;;;;;21.42;8.75;;;;;;;5.61;59.49;97010.53;4519213;31;20163;-75
2021/12/10 05:31:21;;;;;;;19.12;8.50;;;;;;;6.12;58.47;97015.31;4519684;31;20095;-77
2021/12/10 05:33:49;;;;;;;21.75;8.80;;;;;;;5.94;59.90;97009.19;4518037;31;20482;-76
2021/12/10 05:36:16;;;;;;;22.65;9.48;;;;;;;5.85;60.89;97016.38;4519474;31;20560;-76
2021/12/10 05:38:44;;;;;;;19.25;9.23;;;;;;;5.93;60.14;97004.97;4518080;31;20443;-75
2021/12/10 05:41:11;;;;;;;22.40;8.95;;;;;;;5.49;62.70;97005.00;4517831;31;20075;-76
2021/12/10 05:43:41;;;;;;;20.55;7.82;;;;;;;5.67;62.61;97000.88;4519351;31;20088;-76
2021/12/10 05:46:10;;;;;;;18.62;8.25;;;;;;;6.47;59.27;96990.75;4518330;31;20128;-75
2021/12/10 05:48:37;;;;;;;19.35;8.23;;;;;;;5.43;62.88;96986.50;4518772;31;20084;-75
2021/12/10 05:51:04;;;;;;;18.98;7.25;;;;;;;6.17;60.61;96986.94;4519281;31;20166;-76
2021/12/10 05:53:31;;;;;;;19.85;8.20;;;;;;;5.93;61.79;96983.66;4517970;31;20456;-76
2021/12/10 05:55:58;;;;;;;18.62;8.05;;;;;;;5.75;62.63;96977.56;4518287;31;20716;-76
2021/12/10 05:58:25;;;;;;;20.10;9.35;;;;;;;6.60;59.04;96965.44;4519664;31;20147;-76
2021/12/10 06:01:01;;;;;;;21.52;9.15;;;;;;;6.79;58.05;96973.97;4519068;31;20603;-76
2021/12/10 06:03:29;;;;;;;21.42;8.73;;;;;;;6.25;59.59;96977.19;4519360;31;20222;-76
2021/12/10 06:05:56;;;;;;;21.12;9.02;;;;;;;5.86;61.45;96990.75;4519243;31;20083;-75
2021/12/10 06:08:23;;;;;;;24.17;10.27;;;;;;;6.02;60.16;96968.75;4518596;31;20543;-75
2021/12/10 06:10:51;;;;;;;26.08;11.55;;;;;;;5.69;62.06;96968.37;4518084;31;20406;-76
2021/12/10 06:13:19;;;;;;;25.80;10.70;;;;;;;6.34;59.40;96972.53;4517731;31;20138;-76
2021/12/10 06:15:46;;;;;;;23.58;10.65;;;;;;;5.86;61.28;96977.13;4517674;31;20108;-76
2021/12/10 06:18:13;;;;;;;25.67;10.65;;;;;;;6.07;59.78;96974.53;4518882;31;20411;-76
2021/12/10 06:20:49;;;;;;;25.23;10.50;;;;;;;6.76;57.06;96973.28;4518003;31;20146;-76
2021/12/10 06:23:17;;;;;;;24.50;10.05;;;;;;;6.50;57.99;96970.16;4518676;31;20135;-76
2021/12/10 06:25:44;;;;;;;21.52;9.25;;;;;;;6.81;57.04;96976.47;4519046;31;20433;-76
2021/12/10 06:28:11;;;;;;;24.65;9.63;;;;;;;6.71;56.97;96970.94;4517729;31;20110;-76
2021/12/10 06:30:42;;;;;;;23.80;9.32;;;;;;;6.53;57.13;96970.00;4518841;31;20083;-76
2021/12/10 06:33:12;;;;;;;23.10;9.65;;;;;;;6.10;58.17;96973.56;4518384;31;20129;-76
2021/12/10 06:35:40;;;;;;;23.87;9.27;;;;;;;6.06;58.93;96970.31;4517589;31;20675;-76
2021/12/10 06:38:09;;;;;;;21.50;9.20;;;;;;;6.58;57.45;96964.66;4518854;31;20106;-76
2021/12/10 06:40:37;;;;;;;23.55;9.45;;;;;;;6.46;57.43;96970.31;4518874;31;20072;-76
2021/12/10 06:43:05;;;;;;;23.50;8.90;;;;;;;6.29;58.25;96977.03;4518395;31;20479;-76
2021/12/10 06:45:34;;;;;;;22.45;9.20;;;;;;;6.54;56.82;96975.97;4518958;31;20092;-76
2021/12/10 06:48:02;;;;;;;26.10;9.93;;;;;;;6.21;56.69;96971.38;4518681;31;20101;-75
2021/12/10 06:50:34;;;;;;;33.65;9.23;;;;;;;5.81;58.22;96970.44;4518401;31;20154;-75
2021/12/10 06:53:01;;;;;;;47.42;10.32;;;;;;;5.21;60.11;96969.44;4518847;31;20610;-76
2021/12/10 06:55:29;;;;;;;29.65;9.07;;;;;;;4.46;62.92;96967.97;4518837;31;20167;-76
2021/12/10 06:57:57;;;;;;;43.40;8.63;;;;;;;4.29;64.06;96966.87;4517014;31;20457;-76
2021/12/10 07:00:41;;;;;;;46.20;10.18;;;;;;;4.17;64.70;96967.28;4518671;31;20142;-76
2021/12/10 07:03:15;;;;;;;36.55;9.77;;;;;;;2.76;71.30;96965.81;4518517;31;20115;-77
2021/12/10 07:05:42;;;;;;;51.90;9.40;;;;;;;3.52;68.63;96966.94;4518336;31;20150;-77
2021/12/10 07:08:10;;;;;;;55.08;9.50;;;;;;;3.13;69.61;96963.00;4518345;31;20159;-78
2021/12/10 07:10:37;;;;;;;41.90;8.77;;;;;;;3.28;70.42;96960.87;4518483;31;20076;-77
2021/12/10 07:13:06;;;;;;;61.30;9.95;;;;;;;3.66;68.53;96957.94;4524265;31;20589;-78
2021/12/10 07:15:38;;;;;;;61.97;10.00;;;;;;;3.55;68.91;96962.56;4534501;31;20087;-78
2021/12/10 07:18:06;;;;;;;49.53;8.80;;;;;;;3.78;68.51;96956.69;4533957;31;20105;-77
2021/12/10 07:20:34;;;;;;;51.88;10.10;;;;;;;2.66;72.85;96961.88;4534309;31;20093;-78
2021/12/10 07:23:01;;;;;;;49.05;10.02;;;;;;;2.62;73.53;96956.03;4519851;31;20166;-77
2021/12/10 07:25:28;;;;;;;39.40;8.95;;;;;;;2.60;75.50;96949.31;4534015;31;20159;-78
2021/12/10 07:27:55;;;;;;;47.47;8.70;;;;;;;2.94;73.58;96946.59;4534167;31;20130;-77
2021/12/10 07:30:24;;;;;;;49.85;9.88;;;;;;;3.16;72.68;96944.25;4534422;31;20099;-77
2021/12/10 07:32:51;;;;;;;39.55;8.93;;;;;;;2.30;75.90;96944.19;4533572;31;20102;-77
2021/12/10 07:35:20;;;;;;;37.95;9.13;;;;;;;2.92;73.82;96956.00;4534278;31;20585;-76
2021/12/10 07:37:48;;;;;;;42.72;10.18;;;;;;;2.14;77.74;96949.75;4534074;31;20102;-76
2021/12/10 07:40:20;;;;;;;43.53;10.15;;;;;;;2.39;78.12;96945.66;4533306;31;20075;-77
2021/12/10 07:42:48;;;;;;;43.55;9.60;;;;;;;3.17;75.13;96951.00;4533981;31;20433;-77
2021/12/10 07:45:15;;;;;;;39.88;9.90;;;;;;;4.15;70.47;96951.19;4534366;31;20452;-77
2021/12/10 07:47:42;;;;;;;67.90;11.35;;;;;;;4.03;71.89;96942.22;4535882;31;20162;-77
2021/12/10 07:50:17;;;;;;;55.75;9.10;;;;;;;4.78;67.91;96938.69;4521687;31;20193;-77
2021/12/10 07:52:45;;;;;;;41.17;9.80;;;;;;;4.74;68.33;96940.53;4521961;31;20207;-77
2021/12/10 07:55:15;;;;;;;50.12;9.82;;;;;;;4.64;67.98;96926.44;4535795;31;20106;-77
2021/12/10 07:57:43;;;;;;;42.13;9.52;;;;;;;4.37;68.62;96927.47;4535990;31;20166;-76
2021/12/10 08:00:14;;;;;;;28.77;8.52;;;;;;;4.87;67.00;96918.75;4535637;31;20149;-77
2021/12/10 08:02:41;;;;;;;44.38;8.73;;;;;;;5.10;66.17;96920.41;4536416;31;20099;-80
2021/12/10 08:05:09;;;;;;;56.97;9.90;;;;;;;4.46;68.20;96915.16;4536079;31;20347;-77
2021/12/10 08:07:36;;;;;;;48.17;9.95;;;;;;;4.64;67.82;96916.22;4535715;31;20098;-77
2021/12/10 08:10:08;;;;;;;45.67;9.85;;;;;;;4.16;69.52;96917.13;4533049;31;20155;-76
2021/12/10 08:12:35;;;;;;;41.22;8.30;;;;;;;5.54;64.95;96927.25;4535686;31;20151;-76
2021/12/10 08:15:04;;;;;;;34.63;8.73;;;;;;;5.01;66.39;96917.41;4518749;31;20444;-77
2021/12/10 08:17:31;;;;;;;51.85;9.57;;;;;;;5.12;65.65;96921.22;4518954;31;20114;-77
2021/12/10 08:19:59;;;;;;;57.10;10.10;;;;;;;5.04;66.26;96915.56;4533446;31;20138;-77
2021/12/10 08:22:26;;;;;;;41.28;7.87;;;;;;;4.79;67.16;96923.34;4532934;31;20424;-77
2021/12/10 08:24:52;;;;;;;54.70;9.63;;;;;;;4.85;67.24;96925.66;4533494;31;20099;-77
2021/12/10 08:27:19;;;;;;;42.55;9.35;;;;;;;5.24;65.53;96922.44;4533430;31;20179;-77
2021/12/10 08:29:48;;;;;;;52.55;10.00;;;;;;;4.41;68.03;96913.69;4534475;31;20150;-77
2021/12/10 08:32:20;;;;;;;51.08;9.32;;;;;;;4.28;68.71;96916.69;4521661;31;20129;-77
2021/12/10 08:34:48;;;;;;;60.50;9.23;;;;;;;4.58;67.90;96921.59;4521121;31;20179;-76
2021/12/10 08:37:15;;;;;;;43.78;8.30;;;;;;;5.63;63.32;96914.87;4535445;31;20155;-76
2021/12/10 08:39:43;;;;;;;41.47;8.23;;;;;;;5.31;64.51;96912.78;4535562;31;20101;-77
2021/12/10 08:42:12;;;;;;;44.33;8.80;;;;;;;5.70;62.91;96913.75;4535368;31;20095;-76
2021/12/10 08:44:39;;;;;;;38.70;8.90;;;;;;;5.45;65.16;96918.22;4535773;31;20131;-77
2021/12/10 08:47:06;;;;;;;40.80;8.55;;;;;;;6.10;61.92;96917.22;4521381;31;20102;-77
2021/12/10 08:49:33;;;;;;;59.13;9.63;;;;;;;5.05;65.49;96912.09;4535004;31;20083;-78
2021/12/10 08:52:00;;;;;;;30.27;9.65;;;;;;;4.58;66.98;96916.47;4535761;31;20147;-77
2021/12/10 08:54:29;;;;;;;39.35;10.38;;;;;;;5.70;64.12;96916.31;4535760;31;20139;-76
2021/12/10 08:56:57;;;;;;;36.58;8.38;;;;;;;5.72;64.00;96911.94;4534997;31;20107;-77
2021/12/10 08:59:25;;;;;;;33.35;8.77;;;;;;;4.86;66.34;96914.53;4535524;31;20080;-77
2021/12/10 09:01:55;;;;;;;33.60;7.97;;;;;;;5.51;64.18;96912.81;4521358;31;20168;-76
2021/12/10 09:04:25;;;;;;;29.35;7.78;;;;;;;4.82;65.97;96912.16;4535401;31;20151;-77
2021/12/10 09:06:58;;;;;;;30.55;7.32;;;;;;;4.20;68.45;96908.47;4535727;31;20150;-78
2021/12/10 09:09:27;;;;;;;31.05;8.27;;;;;;;4.22;69.94;96905.84;4535426;31;20111;-76
2021/12/10 09:11:56;;;;;;;38.05;8.65;;;;;;;4.54;68.26;96904.69;4520831;31;20113;-77
2021/12/10 09:14:28;;;;;;;49.83;9.35;;;;;;;5.10;65.81;96897.41;4535390;31;20103;-77
2021/12/10 09:16:58;;;;;;;43.40;8.85;;;;;;;4.92;67.25;96900.69;4535679;31;20079;-77
2021/12/10 09:19:25;;;;;;;40.10;8.70;;;;;;;5.07;66.40;96896.69;4535008;31;20076;-77
2021/12/10 09:21:52;;;;;;;54.42;9.15;;;;;;;4.97;66.36;96900.50;4521157;31;20114;-78
2021/12/10 09:24:20;;;;;;;39.38;9.68;;;;;;;5.10;66.59;96897.41;4535416;31;20106;-77
2021/12/10 09:26:53;;;;;;;33.88;8.73;;;;;;;5.33;65.27;96891.41;4535855;31;20490;-77
2021/12/10 09:29:22;;;;;;;32.08;8.23;;;;;;;5.19;66.41;96891.09;4535503;31;20079;-77
2021/12/10 09:31:49;;;;;;;43.63;9.23;;;;;;;5.81;63.10;96893.66;4536187;31;20107;-78
2021/12/10 09:34:17;;;;;;;37.92;8.85;;;;;;;5.59;64.09;96884.37;4536026;31;20084;-77
2021/12/10 09:36:46;;;;;;;49.08;9.88;;;;;;;5.98;62.22;96877.63;4536015;31;20095;-77
2021/12/10 09:39:15;;;;;;;38.28;9.02;;;;;;;5.53;64.25;96877.81;4535471;31;20162;-77
2021/12/10 09:41:42;;;;;;;46.15;8.38;;;;;;;5.31;64.45;96877.81;4535314;31;20162;-76
2021/12/10 09:44:09;;;;;;;48.80;8.27;;;;;;;5.69;62.86;96872.88;4535647;31;20122;-77
2021/12/10 09:46:38;;;;;;;33.70;7.72;;;;;;;5.09;65.19;96869.34;4520654;31;20099;-77
2021/12/10 09:49:07;;;;;;;22.98;7.90;;;;;;;5.95;61.76;96864.09;4535264;31;20078;-77
2021/12/10 09:51:39;;;;;;;33.45;8.88;;;;;;;5.31;64.46;96857.34;4535332;31;20099;-77
2021/12/10 09:54:11;;;;;;;30.85;7.95;;;;;;;4.53;67.71;96852.75;4535139;31;20087;-77
2021/12/10 09:56:39;;;;;;;28.02;8.27;;;;;;;4.87;66.70;96843.78;4535425;31;20155;-77
2021/12/10 09:59:07;;;;;;;33.95;9.90;;;;;;;4.71;67.29;96843.56;4535284;31;20134;-78
2021/12/10 10:01:41;;;;;;;32.63;9.43;;;;;;;4.91;67.13;96835.97;4535111;31;20091;-77
2021/12/10 10:04:11;;;;;;;21.67;9.07;;;;;;;5.64;64.73;96832.13;4535342;31;20092;-77
2021/12/10 10:06:43;;;;;;;22.05;8.93;;;;;;;6.04;63.67;96833.81;4534933;31;20099;-77
2021/12/10 10:09:15;;;;;;;25.00;10.27;;;;;;;6.54;61.85;96827.31;4534121;31;20100;-77
2021/12/10 10:11:54;;;;;;;25.23;10.52;;;;;;;7.66;57.90;96815.06;4521419;31;20166;-77
2021/12/10 10:14:21;;;;;;;23.92;10.00;;;;;;;7.43;58.75;96823.91;4520445;31;20159;-78
2021/12/10 10:16:49;;;;;;;20.40;9.30;;;;;;;7.92;56.29;96821.44;4535296;31;20500;-77
2021/12/10 10:19:17;;;;;;;19.73;9.02;;;;;;;7.80;56.98;96816.00;4535004;31;20154;-77
2021/12/10 10:21:49;;;;;;;20.00;9.35;;;;;;;9.18;52.44;96808.59;4520385;31;20202;-79
2021/12/10 10:24:17;;;;;;;19.80;9.90;;;;;;;10.62;48.38;96817.16;4534837;31;20120;-78
2021/12/10 10:26:55;;;;;;;20.55;9.85;;;;;;;11.17;46.99;96805.94;4534588;31;20098;-78
2021/12/10 10:29:25;;;;;;;22.20;9.90;;;;;;;11.48;45.50;96802.19;4534508;31;20154;-79
2021/12/10 10:31:59;;;;;;;19.85;10.20;;;;;;;11.95;44.51;96810.28;4520647;31;20099;-79
2021/12/10 10:34:27;;;;;;;21.37;10.13;;;;;;;12.27;43.41;96806.31;4520819;31;20112;-79
2021/12/10 10:36:54;;;;;;;18.83;9.35;;;;;;;10.82;47.15;96817.66;4521087;31;20087;-79
2021/12/10 10:39:25;;;;;;;20.08;9.50;;;;;;;10.41;47.26;96816.75;4520856;31;20101;-78
2021/12/10 10:41:54;;;;;;;18.42;9.30;;;;;;;9.64;49.47;96805.94;4534736;31;20109;-78
2021/12/10 10:44:23;;;;;;;18.65;8.55;;;;;;;10.76;46.89;96820.66;4535077;31;20079;-78
2021/12/10 10:46:56;;;;;;;18.25;8.95;;;;;;;10.18;47.67;96801.81;4534849;31;20154;-76
2021/12/10 10:49:36;;;;;;;20.65;9.27;;;;;;;10.85;46.02;96802.84;4534444;31;20183;-76
2021/12/10 10:52:28;;;;;;;17.75;8.70;;;;;;;11.12;45.49;96805.41;4534656;31;20103;-76
2021/12/10 10:55:14;;;;;;;19.98;9.25;;;;;;;11.55;44.36;96806.00;4534930;31;20377;-76
2021/12/10 10:57:56;;;;;;;18.92;8.52;;;;;;;12.42;43.40;96794.91;4534770;31;20163;-76
2021/12/10 11:00:29;;;;;;;18.15;8.85;;;;;;;12.76;41.58;96805.50;4534422;31;20083;-76
2021/12/10 11:03:03;;;;;;;19.12;8.68;;;;;;;12.14;42.42;96797.78;4534266;31;20581;-76
2021/12/10 11:05:33;;;;;;;18.10;9.07;;;;;;;12.32;43.36;96801.66;4520547;31;20171;-75
2021/12/10 11:08:03;;;;;;;19.87;9.23;;;;;;;11.90;43.27;96796.84;4534520;31;20090;-75
2021/12/10 11:10:35;;;;;;;20.92;9.82;;;;;;;11.80;43.32;96797.47;4534156;31;20130;-77
2021/12/10 11:13:28;;;;;;;18.95;9.20;;;;;;;12.63;42.73;96794.31;4534208;31;20154;-78
2021/12/10 11:16:06;;;;;;;18.62;9.52;;;;;;;12.62;41.69;96797.84;4517094;31;20175;-77
2021/12/10 11:18:48;;;;;;;19.33;9.02;;;;;;;13.35;40.61;96799.53;4533944;31;20183;-77
2021/12/10 11:21:16;;;;;;;22.83;10.55;;;;;;;13.09;40.86;96791.06;4536267;31;20139;-78
2021/12/10 11:23:44;;;;;;;21.45;10.43;;;;;;;13.60;39.47;96791.56;4536225;31;20150;-79
2021/12/10 11:26:11;;;;;;;25.20;11.65;;;;;;;12.85;40.58;96791.87;4536498;31;20154;-80
2021/12/10 11:28:41;;;;;;;23.67;11.35;;;;;;;12.95;39.93;96787.69;4521933;31;20174;-78
2021/12/10 11:31:14;;;;;;;25.77;10.98;;;;;;;12.92;40.42;96792.25;4535910;31;20413;-79
2021/12/10 11:33:49;;;;;;;21.90;10.60;;;;;;;11.45;42.68;96789.44;4536447;31;20428;-79
2021/12/10 11:36:23;;;;;;;27.13;12.93;;;;;;;11.64;42.51;96777.91;4522013;31;20111;-79
2021/12/10 11:38:55;;;;;;;27.75;12.90;;;;;;;10.62;44.63;96783.63;4535909;31;20175;-79
2021/12/10 11:41:26;;;;;;;25.20;11.90;;;;;;;10.99;44.99;96781.31;4536189;31;20142;-79
2021/12/10 11:44:07;;;;;;;25.50;11.65;;;;;;;10.80;44.87;96773.91;4536302;31;20125;-79
2021/12/10 11:46:45;;;;;;;24.00;11.40;;;;;;;10.41;46.10;96787.53;4536199;31;20159;-79
2021/12/10 11:49:22;;;;;;;22.00;10.50;;;;;;;10.82;45.35;96777.22;4536303;31;20102;-79
2021/12/10 11:52:00;;;;;;;22.90;10.90;;;;;;;9.79;48.20;96781.88;4535917;31;20097;-79